Log in Register

Login to your account

Username *
Password *
Remember Me

Create an account

Fields marked with an asterisk (*) are required.
Name *
Username *
Password *
Verify password *
Email *
Verify email *

Nous contacter

 Téléphone : +33 (0)4 79 54 41 81

Coordonnées détaillées et accès : cliquez ici

 
LFLB °C
    Ferienhaus Ostsee
[source: ADDS]
METAR
LFLB 201930Z AUTO 22011G26KT 180V270 CAVOK 23/09 Q1008 =
TAF LFLB 201100Z 2012/2112 18004KT CAVOK TEMPO 2018/2021 22015G25KT PROB40 TEMPO 2018/2021 20025G44KT TEMPO 2020/2112 RA BKN014 PROB40 TEMPO 2021/2112 3000 TSRA BKN014 BKN030CB
TAF
TAF LFLB 201100Z 2012/2112 18004KT CAVOK TEMPO 2018/2021 22015G25KT PROB40 TEMPO 2018/2021 20025G44KT TEMPO 2020/2112 RA BKN014 PROB40 TEMPO 2021/2112 3000 TSRA BKN014 BKN030CB =
SR / SS: 05:59 / 16:43 UTC (Lever/Coucher du soleil le 2019-10-20)
JSN Boot template designed by JoomlaShine.com